Koyo — JD2279 — position and weather

sailwx.info

Track history (hours):
 
Tides and Currents Weather Stations Pressure Air Temp Water Temp Dewpoint Dewpoint Depression Visibility Wind Speed Wind Dir Waves Ship Positions

Koyo

Last reported at 2014-Nov-28 10:33 UTC. Time now 2014-Nov-28 11:05 UTC.
Position N 34°39' E 135°15'.

Length 80 m; draft 3.6 m.

Type: Cargo ship. MMSI: 431301812.

Date/timePositionNaut miles runAvg speedWind from/ knotsBaromVisibWave heightAir tempDewpointWater temp
2014-Nov-28 10:33N 34°39' E 135°15'0 0.0
2014-Nov-28 09:33N 34°39' E 135°15'0 0.0
2014-Nov-28 08:34N 34°39' E 135°15'10 9.6
2014-Nov-28 07:33N 34°35' E 135°04'1311.7
2014-Nov-28 06:27N 34°33' E 134°49'20810.8
2014-Nov-27 11:07N 33°57' E 130°41'1211.4
2014-Nov-27 10:06N 33°53' E 130°28'712.3
2014-Nov-27 09:33N 33°48' E 130°22'10 9.8
2014-Nov-27 08:34N 33°39' E 130°18'5 5.1
2014-Nov-27 07:32N 33°39' E 130°25'0 0.0
2014-Nov-27 06:31N 33°39' E 130°25'0 0.0
2014-Nov-27 05:32N 33°39' E 130°25'4 3.7
2014-Nov-27 04:33N 33°38' E 130°20'9 8.5
2014-Nov-27 03:33N 33°47' E 130°20'23411.7
2014-Nov-26 07:32N 34°37' E 134°56'10 9.8
2014-Nov-26 06:33N 34°36' E 135°08'6 6.2
2014-Nov-26 05:33N 34°40' E 135°14'0 0.0
2014-Nov-26 04:33N 34°40' E 135°14'0 0.0
2014-Nov-26 03:33N 34°40' E 135°14'0 0.0
2014-Nov-26 02:33N 34°40' E 135°14'1 0.6
2014-Nov-26 01:33N 34°39' E 135°15'0 0.4
2014-Nov-26 00:28N 34°39' E 135°15'0 0.0
2014-Nov-25 23:22N 34°39' E 135°15'0 0.1
2014-Nov-25 22:33N 34°39' E 135°15'10 9.9
2014-Nov-25 21:33N 34°35' E 135°04'1111.2
2014-Nov-25 20:32N 34°33' E 134°50'2 0.1
2014-Nov-24 04:32N 34°35' E 134°52'10 9.9
2014-Nov-24 03:33N 34°36' E 135°03'1211.8
2014-Nov-24 02:33N 34°38' E 135°18'6 6.0
2014-Nov-24 01:33N 34°38' E 135°25'6 6.2
2014-Nov-24 00:33N 34°39' E 135°18'3 2.7
2014-Nov-23 23:33N 34°39' E 135°14'2 1.6
2014-Nov-23 22:33N 34°40' E 135°13'0 0.0
2014-Nov-23 21:31N 34°40' E 135°13'0 0.0
2014-Nov-23 20:31N 34°40' E 135°13'0 0.0
2014-Nov-23 19:31N 34°40' E 135°13'0 0.0
2014-Nov-23 18:31N 34°40' E 135°13'0 0.0
2014-Nov-23 17:25N 34°40' E 135°13'0 0.0
2014-Nov-23 16:31N 34°40' E 135°13'0 0.0
2014-Nov-23 15:31N 34°40' E 135°13'0 0.0
2014-Nov-23 14:31N 34°40' E 135°13'0 0.0
2014-Nov-23 13:31N 34°40' E 135°13'0 0.0
2014-Nov-23 12:25N 34°40' E 135°13'0 0.0
2014-Nov-23 11:31N 34°40' E 135°13'0 0.0
2014-Nov-23 10:31N 34°40' E 135°13'6 6.1
2014-Nov-23 09:34N 34°35' E 135°14'1111.5
2014-Nov-23 08:34N 34°25' E 135°07'1211.4
2014-Nov-23 07:31N 34°15' E 134°59'7 0.1
2014-Nov-21 06:33N 34°09' E 134°57'1413.9
2014-Nov-21 05:33N 34°22' E 135°01'1414.0
2014-Nov-21 04:32N 34°32' E 135°13'1111.5
2014-Nov-21 03:33N 34°38' E 135°25'1 1.3
2014-Nov-21 02:33N 34°38' E 135°23'7 7.3
2014-Nov-21 01:33N 34°39' E 135°15'0 0.0
2014-Nov-21 00:33N 34°39' E 135°15'0 0.0
2014-Nov-20 23:33N 34°39' E 135°15'0 0.4
2014-Nov-20 22:33N 34°39' E 135°15'0 0.0
2014-Nov-20 21:23N 34°39' E 135°15'0 0.0
2014-Nov-20 20:29N 34°39' E 135°15'1 1.5
2014-Nov-20 19:33N 34°37' E 135°14'1010.3
2014-Nov-20 18:33N 34°37' E 135°02'1211.6
2014-Nov-20 17:31N 34°33' E 134°48'3 0.1
2014-Nov-19 05:08N 34°35' E 134°51'711.2
2014-Nov-19 04:33N 34°37' E 134°58'1010.2
2014-Nov-19 03:33N 34°37' E 135°10'1111.4
2014-Nov-19 02:33N 34°38' E 135°24'1 0.8
2014-Nov-19 01:33N 34°38' E 135°25'9 8.9
2014-Nov-19 00:33N 34°39' E 135°14'0 0.0
2014-Nov-18 23:33N 34°39' E 135°14'3 3.1
2014-Nov-18 22:33N 34°37' E 135°12'1010.0
2014-Nov-18 21:33N 34°37' E 135°00'1110.6
2014-Nov-18 20:31N 34°33' E 134°48'  
Track history (hours):
 
Tides and Currents Weather Stations Pressure Air Temp Water Temp Dewpoint Dewpoint Depression Visibility Wind Speed Wind Dir Waves Ship Positions

Koyo

Last reported at 2014-Nov-28 10:33 UTC. Time now 2014-Nov-28 11:05 UTC.
Position N 34°39' E 135°15'.

Length 80 m; draft 3.6 m.

Type: Cargo ship. MMSI: 431301812.

Date/timePositionNaut miles runAvg speedWind from/ knotsBaromVisibWave heightAir tempDewpointWater temp
2014-Nov-28 10:33N 34°39' E 135°15'0 0.0
2014-Nov-28 09:33N 34°39' E 135°15'0 0.0
2014-Nov-28 08:34N 34°39' E 135°15'10 9.6
2014-Nov-28 07:33N 34°35' E 135°04'1311.7
2014-Nov-28 06:27N 34°33' E 134°49'20810.8
2014-Nov-27 11:07N 33°57' E 130°41'1211.4
2014-Nov-27 10:06N 33°53' E 130°28'712.3
2014-Nov-27 09:33N 33°48' E 130°22'10 9.8
2014-Nov-27 08:34N 33°39' E 130°18'5 5.1
2014-Nov-27 07:32N 33°39' E 130°25'0 0.0
2014-Nov-27 06:31N 33°39' E 130°25'0 0.0
2014-Nov-27 05:32N 33°39' E 130°25'4 3.7
2014-Nov-27 04:33N 33°38' E 130°20'9 8.5
2014-Nov-27 03:33N 33°47' E 130°20'23411.7
2014-Nov-26 07:32N 34°37' E 134°56'10 9.8
2014-Nov-26 06:33N 34°36' E 135°08'6 6.2
2014-Nov-26 05:33N 34°40' E 135°14'0 0.0
2014-Nov-26 04:33N 34°40' E 135°14'0 0.0
2014-Nov-26 03:33N 34°40' E 135°14'0 0.0
2014-Nov-26 02:33N 34°40' E 135°14'1 0.6
2014-Nov-26 01:33N 34°39' E 135°15'0 0.4
2014-Nov-26 00:28N 34°39' E 135°15'0 0.0
2014-Nov-25 23:22N 34°39' E 135°15'0 0.1
2014-Nov-25 22:33N 34°39' E 135°15'10 9.9
2014-Nov-25 21:33N 34°35' E 135°04'1111.2
2014-Nov-25 20:32N 34°33' E 134°50'2 0.1
2014-Nov-24 04:32N 34°35' E 134°52'10 9.9
2014-Nov-24 03:33N 34°36' E 135°03'1211.8
2014-Nov-24 02:33N 34°38' E 135°18'6 6.0
2014-Nov-24 01:33N 34°38' E 135°25'6 6.2
2014-Nov-24 00:33N 34°39' E 135°18'3 2.7
2014-Nov-23 23:33N 34°39' E 135°14'2 1.6
2014-Nov-23 22:33N 34°40' E 135°13'0 0.0
2014-Nov-23 21:31N 34°40' E 135°13'0 0.0
2014-Nov-23 20:31N 34°40' E 135°13'0 0.0
2014-Nov-23 19:31N 34°40' E 135°13'0 0.0
2014-Nov-23 18:31N 34°40' E 135°13'0 0.0
2014-Nov-23 17:25N 34°40' E 135°13'0 0.0
2014-Nov-23 16:31N 34°40' E 135°13'0 0.0
2014-Nov-23 15:31N 34°40' E 135°13'0 0.0
2014-Nov-23 14:31N 34°40' E 135°13'0 0.0
2014-Nov-23 13:31N 34°40' E 135°13'0 0.0
2014-Nov-23 12:25N 34°40' E 135°13'0 0.0
2014-Nov-23 11:31N 34°40' E 135°13'0 0.0
2014-Nov-23 10:31N 34°40' E 135°13'6 6.1
2014-Nov-23 09:34N 34°35' E 135°14'1111.5
2014-Nov-23 08:34N 34°25' E 135°07'1211.4
2014-Nov-23 07:31N 34°15' E 134°59'7 0.1
2014-Nov-21 06:33N 34°09' E 134°57'1413.9
2014-Nov-21 05:33N 34°22' E 135°01'1414.0
2014-Nov-21 04:32N 34°32' E 135°13'1111.5
2014-Nov-21 03:33N 34°38' E 135°25'1 1.3
2014-Nov-21 02:33N 34°38' E 135°23'7 7.3
2014-Nov-21 01:33N 34°39' E 135°15'0 0.0
2014-Nov-21 00:33N 34°39' E 135°15'0 0.0
2014-Nov-20 23:33N 34°39' E 135°15'0 0.4
2014-Nov-20 22:33N 34°39' E 135°15'0 0.0
2014-Nov-20 21:23N 34°39' E 135°15'0 0.0
2014-Nov-20 20:29N 34°39' E 135°15'1 1.5
2014-Nov-20 19:33N 34°37' E 135°14'1010.3
2014-Nov-20 18:33N 34°37' E 135°02'1211.6
2014-Nov-20 17:31N 34°33' E 134°48'3 0.1
2014-Nov-19 05:08N 34°35' E 134°51'711.2
2014-Nov-19 04:33N 34°37' E 134°58'1010.2
2014-Nov-19 03:33N 34°37' E 135°10'1111.4
2014-Nov-19 02:33N 34°38' E 135°24'1 0.8
2014-Nov-19 01:33N 34°38' E 135°25'9 8.9
2014-Nov-19 00:33N 34°39' E 135°14'0 0.0
2014-Nov-18 23:33N 34°39' E 135°14'3 3.1
2014-Nov-18 22:33N 34°37' E 135°12'1010.0
2014-Nov-18 21:33N 34°37' E 135°00'1110.6
2014-Nov-18 20:31N 34°33' E 134°48'  

Dump ship's entire track history